Time;durP1;ratioP1;P1;durP2;ratioP2;P2;SDS_P1;SDS_P2;PMS_P1;PMS_P2;Temp;Humidity;BMP_temperature;BMP_pressure;BME280_temperature;BME280_humidity;BME280_pressure;Samples;Min_cycle;Max_cycle;Signal;HPM_P1;HPM_P2
2021/03/27 00:01:09;;;;;;;142.05;87.22;;;77.50;2227.20;;;;;;5104239;28;20031;-86
2021/03/27 00:04:11;;;;;;;117.25;70.03;;;77.50;2227.20;;;;;;5090740;28;20028;-86
2021/03/27 00:06:57;;;;;;;193.60;107.82;;;77.50;2227.20;;;;;;5074519;28;20488;-86
2021/03/27 00:09:33;;;;;;;162.55;92.45;;;77.40;2227.20;;;;;;5084787;28;20035;-87
2021/03/27 00:12:05;;;;;;;163.75;94.65;;;77.40;2227.20;;;;;;5089337;28;20024;-85
2021/03/27 00:14:53;;;;;;;166.98;100.78;;;77.40;2227.20;;;;;;5086661;28;20464;-87
2021/03/27 00:17:28;;;;;;;164.88;98.15;;;77.40;2227.20;;;;;;5077415;28;20056;-87
2021/03/27 00:20:00;;;;;;;168.98;94.05;;;77.30;2227.20;;;;;;5071697;28;20082;-87
2021/03/27 00:22:44;;;;;;;168.05;92.70;;;77.40;2227.20;;;;;;5073282;28;20025;-84
2021/03/27 00:25:13;;;;;;;144.68;85.07;;;77.40;2227.20;;;;;;5074863;28;20028;-83
2021/03/27 00:27:54;;;;;;;153.75;87.30;;;77.30;2227.20;;;;;;5074892;28;20492;-86
2021/03/27 00:30:36;;;;;;;162.85;94.25;;;77.30;2227.20;;;;;;5075839;28;20082;-86
2021/03/27 00:33:03;;;;;;;196.18;107.97;;;77.30;2227.20;;;;;;5075623;28;20043;-85
2021/03/27 00:35:43;;;;;;;184.02;102.28;;;77.20;2227.20;;;;;;5076990;28;20028;-84
2021/03/27 00:38:17;;;;;;;161.05;91.47;;;77.20;2227.20;;;;;;5075329;28;20024;-86
2021/03/27 00:40:47;;;;;;;166.77;95.05;;;77.20;2227.20;;;;;;5076661;28;20028;-87
2021/03/27 00:43:27;;;;;;;155.65;89.85;;;77.10;2227.20;;;;;;5075474;28;20028;-88
2021/03/27 00:45:58;;;;;;;141.73;80.82;;;77.10;2227.20;;;;;;5075356;28;20033;-86
2021/03/27 00:48:36;;;;;;;136.35;80.10;;;77.10;2227.20;;;;;;5076596;28;20021;-86
2021/03/27 00:51:10;;;;;;;117.03;70.28;;;77.10;2227.20;;;;;;5076862;28;20031;-87
2021/03/27 00:54:06;;;;;;;105.93;61.63;;;77.10;2227.20;;;;;;5075246;28;20110;-87
2021/03/27 00:56:46;;;;;;;107.43;59.17;;;77.00;2227.20;;;;;;5075485;28;20120;-87
2021/03/27 00:59:20;;;;;;;100.68;57.90;;;76.90;2227.20;;;;;;5075175;28;20028;-87
2021/03/27 01:01:50;;;;;;;93.43;55.10;;;77.00;2227.20;;;;;;5075852;28;20051;-88
2021/03/27 01:04:19;;;;;;;86.60;53.35;;;76.90;2227.20;;;;;;5076222;28;20024;-87
2021/03/27 01:06:57;;;;;;;94.55;54.45;;;52.10;2227.20;;;;;;5074359;28;20052;-86
2021/03/27 01:09:35;;;;;;;99.47;58.03;;;52.10;2227.20;;;;;;5075185;28;20495;-87
2021/03/27 01:12:09;;;;;;;126.40;71.53;;;76.80;2227.20;;;;;;5075159;28;20028;-87
2021/03/27 01:14:47;;;;;;;184.00;99.97;;;76.80;2227.20;;;;;;5076334;28;20029;-87
2021/03/27 01:17:22;;;;;;;215.35;107.75;;;52.10;2227.20;;;;;;5074894;28;20029;-86
2021/03/27 01:19:55;;;;;;;193.43;100.72;;;76.80;2227.20;;;;;;5075445;28;20402;-86
2021/03/27 01:22:23;;;;;;;155.95;86.13;;;76.80;2227.20;;;;;;5074941;28;20036;-85
2021/03/27 01:24:50;;;;;;;103.65;61.03;;;52.10;2227.20;;;;;;5074610;28;20496;-85
2021/03/27 01:27:15;;;;;;;76.57;44.45;;;52.10;2227.20;;;;;;5074622;28;20035;-87
2021/03/27 01:30:05;;;;;;;75.35;47.70;;;52.00;2227.20;;;;;;5073591;28;20112;-87
2021/03/27 01:32:36;;;;;;;90.28;50.97;;;52.00;2227.20;;;;;;5074909;28;20044;-86
2021/03/27 01:35:14;;;;;;;91.13;52.85;;;52.10;2227.20;;;;;;5074408;28;20115;-86
2021/03/27 01:37:53;;;;;;;135.25;73.65;;;52.00;2227.20;;;;;;5074392;28;20052;-86
2021/03/27 01:40:32;;;;;;;147.60;78.43;;;52.00;2227.20;;;;;;5074329;28;20024;-84
2021/03/27 01:43:12;;;;;;;144.90;83.30;;;51.90;2227.20;;;;;;5074223;28;20025;-88
2021/03/27 01:46:03;;;;;;;157.57;85.70;;;52.00;2227.20;;;;;;5074187;28;20029;-87
2021/03/27 01:48:54;;;;;;;125.00;67.53;;;52.00;2227.20;;;;;;5074218;28;20024;-84
2021/03/27 01:51:38;;;;;;;95.72;53.10;;;52.00;2227.20;;;;;;5074317;28;20025;-85
2021/03/27 01:54:10;;;;;;;94.55;55.33;;;52.00;2227.20;;;;;;5074061;28;20063;-85
2021/03/27 01:56:50;;;;;;;104.32;61.03;;;52.10;2227.20;;;;;;5073884;28;20032;-83
2021/03/27 01:59:31;;;;;;;116.30;67.30;;;52.00;2227.20;;;;;;5074039;28;20127;-86
2021/03/27 02:02:12;;;;;;;114.85;67.18;;;51.90;2227.20;;;;;;5073723;28;20024;-86
2021/03/27 02:04:52;;;;;;;96.82;56.50;;;51.80;2227.20;;;;;;5073429;28;20027;-84
2021/03/27 02:07:45;;;;;;;67.88;41.10;;;51.80;2227.20;;;;;;5090353;28;20046;-87
2021/03/27 02:10:26;;;;;;;;;;;51.70;2227.20;;;;;;5073425;28;20029;-87
2021/03/27 02:13:04;;;;;;;67.53;41.30;;;51.70;2227.20;;;;;;5073664;28;19904;-86
2021/03/27 02:15:58;;;;;;;65.80;38.50;;;51.50;2227.20;;;;;;5090572;28;20059;-86
2021/03/27 02:18:44;;;;;;;66.22;37.55;;;51.50;2227.20;;;;;;5090924;28;20174;-84
2021/03/27 02:21:33;;;;;;;113.93;55.92;;;51.40;2227.20;;;;;;5085993;28;20456;-88
2021/03/27 02:24:21;;;;;;;74.30;41.30;;;51.30;2227.20;;;;;;5042290;28;20036;-86
2021/03/27 02:26:53;;;;;;;166.70;82.10;;;51.40;2227.20;;;;;;5088716;28;20063;-87
2021/03/27 02:29:43;;;;;;;70.70;41.10;;;51.30;2227.20;;;;;;5090256;28;20056;-84
2021/03/27 02:32:12;;;;;;;61.08;32.47;;;51.40;2227.20;;;;;;5090588;28;20025;-87
2021/03/27 02:35:08;;;;;;;56.10;32.35;;;51.20;2227.20;;;;;;5090044;28;20020;-87
2021/03/27 02:37:57;;;;;;;95.25;48.80;;;26.40;2201.60;;;;;;5061993;28;20082;-84
2021/03/27 02:40:35;;;;;;;70.50;39.67;;;26.50;2201.60;;;;;;5089730;28;20024;-87
2021/03/27 02:43:11;;;;;;;60.08;35.38;;;26.40;2201.60;;;;;;5090133;28;20037;-83
2021/03/27 02:46:03;;;;;;;101.32;51.60;;;51.30;2227.20;;;;;;5089875;28;20039;-83
2021/03/27 02:48:50;;;;;;;63.08;35.38;;;51.30;2227.20;;;;;;5044972;28;20475;-85
2021/03/27 02:51:39;;;;;;;56.10;32.00;;;26.50;2201.60;;;;;;5088471;28;20075;-85
2021/03/27 02:54:08;;;;;;;59.47;33.40;;;26.40;2201.60;;;;;;5052941;28;20043;-84
2021/03/27 02:56:50;;;;;;;74.15;39.45;;;26.50;2201.60;;;;;;5068637;28;20464;-82
2021/03/27 02:59:51;;;;;;;68.53;38.22;;;26.50;2201.60;;;;;;5052486;28;20025;-85
2021/03/27 03:02:41;;;;;;;60.50;34.38;;;26.40;2201.60;;;;;;5052710;28;20033;-84
2021/03/27 03:05:27;;;;;;;58.45;33.78;;;51.20;2227.20;;;;;;5052270;28;20044;-85
2021/03/27 03:08:11;;;;;;;62.50;34.15;;;26.50;2201.60;;;;;;5068980;28;20029;-84
2021/03/27 03:10:58;;;;;;;78.53;42.97;;;51.20;2227.20;;;;;;5070247;28;20044;-86
2021/03/27 03:13:51;;;;;;;67.30;37.75;;;26.40;2201.60;;;;;;5069374;28;20036;-83
2021/03/27 03:16:22;;;;;;;64.85;34.50;;;26.50;2201.60;;;;;;5044243;28;20127;-87
2021/03/27 03:19:23;;;;;;;53.28;32.38;;;26.40;2201.60;;;;;;5069300;28;20033;-81
2021/03/27 03:22:13;;;;;;;63.08;35.33;;;26.30;2201.60;;;;;;4992693;28;20026;-88
2021/03/27 03:24:47;;;;;;;52.38;32.40;;;26.40;2201.60;;;;;;5068801;28;20116;-86
2021/03/27 03:27:38;;;;;;;51.45;29.60;;;26.20;2201.60;;;;;;5088971;28;20033;-87
2021/03/27 03:30:20;;;;;;;62.28;34.70;;;26.20;2201.60;;;;;;5089574;28;20029;-88
2021/03/27 03:32:57;;;;;;;66.55;38.50;;;26.10;2201.60;;;;;;5089332;28;20028;-86
2021/03/27 03:35:47;;;;;;;65.97;37.72;;;26.20;2201.60;;;;;;5089615;28;20024;-84
2021/03/27 03:38:31;;;;;;;63.55;32.60;;;26.20;2201.60;;;;;;5089639;28;20124;-84
2021/03/27 03:41:13;;;;;;;77.88;41.58;;;26.10;2201.60;;;;;;5089310;28;20028;-87
2021/03/27 03:43:53;;;;;;;69.63;37.55;;;26.20;2201.60;;;;;;5072919;28;20094;-87
2021/03/27 03:46:51;;;;;;;50.10;29.70;;;26.10;2201.60;;;;;;5089220;28;20476;-87
2021/03/27 03:49:22;;;;;;;95.40;49.00;;;26.10;2201.60;;;;;;5064217;28;20037;-83
2021/03/27 03:52:27;;;;;;;73.93;40.97;;;26.20;2201.60;;;;;;5088953;28;20029;-88
2021/03/27 03:54:58;;;;;;;76.05;43.53;;;26.10;2201.60;;;;;;5092982;28;20028;-83
2021/03/27 03:57:30;;;;;;;69.80;37.65;;;26.00;2201.60;;;;;;5091896;28;20025;-85
2021/03/27 04:00:11;;;;;;;66.70;35.50;;;26.00;2201.60;;;;;;5092853;28;20028;-83
2021/03/27 04:02:48;;;;;;;53.17;28.35;;;26.00;2201.60;;;;;;5092953;28;20032;-86
2021/03/27 04:05:21;;;;;;;126.43;62.25;;;26.10;2201.60;;;;;;5075603;28;20044;-85
2021/03/27 04:08:07;;;;;;;101.57;49.40;;;25.90;2201.60;;;;;;5076328;28;20388;-83
2021/03/27 04:10:36;;;;;;;92.18;49.92;;;25.80;2201.60;;;;;;5092505;28;20035;-85
2021/03/27 04:13:05;;;;;;;80.90;45.92;;;25.90;2201.60;;;;;;5075692;28;20035;-84
2021/03/27 04:15:40;;;;;;;89.95;46.95;;;25.90;2201.60;;;;;;5075488;28;20032;-85
2021/03/27 04:18:13;;;;;;;73.25;41.83;;;25.70;2201.60;;;;;;5092391;28;20025;-85
2021/03/27 04:21:00;;;;;;;69.85;38.10;;;25.70;2201.60;;;;;;5076022;28;20464;-84
2021/03/27 04:23:44;;;;;;;54.75;33.20;;;25.70;2201.60;;;;;;5092680;28;20025;-84
2021/03/27 04:26:36;;;;;;;64.90;40.78;;;25.70;2201.60;;;;;;5076808;28;20041;-84
2021/03/27 04:29:11;;;;;;;62.00;34.78;;;25.90;2201.60;;;;;;5091049;28;20017;-85
2021/03/27 04:31:52;;;;;;;89.75;52.47;;;25.70;2201.60;;;;;;5075350;28;20078;-87
2021/03/27 04:34:32;;;;;;;70.03;39.50;;;25.70;2201.60;;;;;;5074371;28;20020;-83
2021/03/27 04:37:14;;;;;;;67.47;39.20;;;25.80;2201.60;;;;;;5075092;28;20030;-85
2021/03/27 04:40:10;;;;;;;66.78;38.25;;;25.70;2201.60;;;;;;5075459;28;20025;-86
2021/03/27 04:42:48;;;;;;;60.38;35.85;;;25.90;2201.60;;;;;;5075796;28;20028;-85
2021/03/27 04:45:28;;;;;;;138.68;73.90;;;25.80;2201.60;;;;;;5075277;28;20437;-86
2021/03/27 04:48:18;;;;;;;74.82;45.03;;;25.90;2201.60;;;;;;5075007;28;20103;-86
2021/03/27 04:50:56;;;;;;;70.53;41.85;;;26.00;2201.60;;;;;;5075099;28;20032;-86
2021/03/27 04:53:46;;;;;;;60.60;35.60;;;25.80;2201.60;;;;;;5075260;28;20074;-86
2021/03/27 04:56:35;;;;;;;58.03;34.05;;;25.90;2201.60;;;;;;5075200;28;20029;-85
2021/03/27 04:59:35;;;;;;;66.43;38.88;;;25.90;2201.60;;;;;;5074484;28;20043;-84
2021/03/27 05:02:17;;;;;;;70.45;40.03;;;25.80;2201.60;;;;;;5074906;28;20060;-83
2021/03/27 05:05:23;;;;;;;62.90;37.70;;;25.80;2201.60;;;;;;5074322;28;20051;-86
2021/03/27 05:08:21;;;;;;;67.95;36.60;;;25.60;2201.60;;;;;;5074730;28;20099;-87
2021/03/27 05:11:18;;;;;;;67.80;44.03;;;25.70;2201.60;;;;;;5055503;28;20035;-86
2021/03/27 05:14:18;;;;;;;63.75;41.25;;;25.80;2201.60;;;;;;5091559;28;20021;-84
2021/03/27 05:17:08;;;;;;;69.80;41.50;;;25.70;2201.60;;;;;;5004160;28;20086;-84
2021/03/27 05:19:51;;;;;;;70.57;46.25;;;25.70;2201.60;;;;;;5074035;28;20392;-83
2021/03/27 05:22:38;;;;;;;;;;;25.80;2201.60;;;;;;5074815;28;20028;-85
2021/03/27 05:25:51;;;;;;;80.65;41.20;;;25.90;2201.60;;;;;;5074570;28;19913;-83
2021/03/27 05:28:29;;;;;;;70.25;39.55;;;25.80;2201.60;;;;;;5074717;28;20032;-83
2021/03/27 05:31:28;;;;;;;82.28;50.40;;;25.60;2201.60;;;;;;5074568;28;20036;-84
2021/03/27 05:34:33;;;;;;;78.38;40.38;;;0.90;2201.60;;;;;;5074054;28;20538;-84
2021/03/27 05:37:08;;;;;;;70.57;41.10;;;0.90;2201.60;;;;;;5074553;28;20032;-83
2021/03/27 05:39:39;;;;;;;73.88;46.42;;;25.60;2201.60;;;;;;5073661;28;20103;-84
2021/03/27 05:42:27;;;;;;;99.78;60.25;;;25.60;2201.60;;;;;;5074128;28;20025;-81
2021/03/27 05:45:16;;;;;;;98.07;52.25;;;25.70;2201.60;;;;;;5074106;28;20025;-84
2021/03/27 05:48:19;;;;;;;85.95;49.13;;;26.10;2201.60;;;;;;5073765;28;20025;-83
2021/03/27 05:51:24;;;;;;;67.45;43.00;;;26.20;2201.60;;;;;;5073954;28;20046;-83
2021/03/27 05:53:50;;;;;;;69.78;42.10;;;26.30;2201.60;;;;;;5054331;28;20074;-83
2021/03/27 05:56:21;;;;;;;68.57;41.88;;;26.40;2201.60;;;;;;5070000;28;20025;-85
2021/03/27 05:58:53;;;;;;;76.18;46.25;;;26.30;2201.60;;;;;;5070182;28;20546;-84
2021/03/27 06:01:42;;;;;;;58.28;35.45;;;26.40;2201.60;;;;;;5070229;28;20452;-84
2021/03/27 06:04:29;;;;;;;69.57;39.42;;;26.50;2201.60;;;;;;5053642;28;20020;-85
2021/03/27 06:07:01;;;;;;;69.57;39.92;;;51.20;2227.20;;;;;;5053363;28;20128;-84
2021/03/27 06:09:32;;;;;;;72.50;42.92;;;26.50;2201.60;;;;;;5070109;28;20021;-85
2021/03/27 06:12:23;;;;;;;76.00;43.92;;;26.50;2201.60;;;;;;5070029;28;20029;-84
2021/03/27 06:15:04;;;;;;;77.88;44.35;;;51.40;2227.20;;;;;;5052864;28;20024;-87
2021/03/27 06:17:38;;;;;;;75.20;45.47;;;51.60;2227.20;;;;;;5070039;28;20021;-86
2021/03/27 06:20:13;;;;;;;68.75;42.47;;;51.80;2227.20;;;;;;5053566;28;20489;-86
2021/03/27 06:22:57;;;;;;;65.20;41.45;;;52.00;2227.20;;;;;;5069951;28;20033;-84
2021/03/27 06:25:26;;;;;;;78.28;43.97;;;76.80;2227.20;;;;;;5070262;28;20029;-86
2021/03/27 06:28:28;;;;;;;90.80;57.80;;;76.90;2227.20;;;;;;5070536;28;20032;-87
2021/03/27 06:31:15;;;;;;;91.15;55.17;;;76.90;2227.20;;;;;;5070934;28;20357;-87
2021/03/27 06:34:39;;;;;;;81.30;47.15;;;77.10;2227.20;;;;;;5070772;28;20373;-87
2021/03/27 06:37:28;;;;;;;73.30;47.40;;;77.20;2227.20;;;;;;4954189;28;20035;-87
2021/03/27 06:40:17;;;;;;;68.43;41.28;;;77.40;2227.20;;;;;;5070190;28;20044;-84
2021/03/27 06:43:08;;;;;;;65.43;37.72;;;77.60;2227.20;;;;;;5053581;28;20427;-84
2021/03/27 06:45:53;;;;;;;63.90;36.88;;;77.70;2227.20;;;;;;5053061;28;20025;-85
2021/03/27 06:48:36;;;;;;;72.13;41.08;;;102.50;2227.20;;;;;;5069985;28;20032;-86
2021/03/27 06:51:46;;;;;;;80.43;52.72;;;102.60;2227.20;;;;;;5053310;28;20025;-85
2021/03/27 06:54:36;;;;;;;58.80;35.25;;;102.60;2227.20;;;;;;4992851;28;20030;-84
2021/03/27 06:57:36;;;;;;;50.97;33.33;;;102.70;2227.20;;;;;;4977124;28;20057;-86
2021/03/27 07:00:35;;;;;;;67.88;41.97;;;102.80;2227.20;;;;;;5045639;28;20102;-86
2021/03/27 07:03:29;;;;;;;55.95;34.47;;;102.90;2227.20;;;;;;5053316;28;20476;-86
2021/03/27 07:06:10;;;;;;;52.83;35.30;;;103.00;2227.20;;;;;;5069343;28;20052;-86
2021/03/27 07:08:47;;;;;;;49.33;31.35;;;103.00;2227.20;;;;;;5070174;28;20059;-87
2021/03/27 07:11:38;;;;;;;57.78;36.45;;;103.10;2227.20;;;;;;5053099;28;20047;-85
2021/03/27 07:14:29;;;;;;;46.67;32.15;;;103.20;2227.20;;;;;;5052912;28;20040;-85
2021/03/27 07:17:11;;;;;;;48.30;30.40;;;128.00;2252.80;;;;;;5070241;28;20394;-86
2021/03/27 07:20:07;;;;;;;43.80;27.58;;;128.10;2252.80;;;;;;5053214;28;20029;-86
2021/03/27 07:23:10;;;;;;;47.35;29.52;;;128.40;2252.80;;;;;;5054201;28;20096;-86
2021/03/27 07:25:42;;;;;;;36.73;24.87;;;128.50;2252.80;;;;;;5069441;28;20033;-85
2021/03/27 07:28:07;;;;;;;41.72;25.30;;;128.70;2252.80;;;;;;5072232;28;20484;-87
2021/03/27 07:30:59;;;;;;;39.15;25.17;;;128.80;2252.80;;;;;;5057812;28;20025;-84
2021/03/27 07:33:59;;;;;;;40.90;26.30;;;153.60;2252.80;;;;;;5056671;28;20028;-85
2021/03/27 07:36:40;;;;;;;43.20;26.42;;;153.80;2252.80;;;;;;5058082;28;20037;-83
2021/03/27 07:39:27;;;;;;;40.30;27.23;;;154.00;2252.80;;;;;;5073464;28;20024;-84
2021/03/27 07:42:23;;;;;;;42.33;27.15;;;154.30;2252.80;;;;;;5073123;28;20025;-83
2021/03/27 07:45:27;;;;;;;39.63;27.60;;;154.40;2252.80;;;;;;5056430;28;20025;-85
2021/03/27 07:48:18;;;;;;;43.95;27.65;;;154.50;2252.80;;;;;;5026637;28;20503;-83
2021/03/27 07:51:08;;;;;;;43.78;29.08;;;179.30;2227.20;;;;;;5073026;28;20163;-84
2021/03/27 07:53:54;;;;;;;45.22;30.00;;;179.50;2150.40;;;;;;5057541;28;20434;-85
2021/03/27 07:56:45;;;;;;;48.88;31.60;;;179.70;2048.00;;;;;;5073174;28;20036;-82
2021/03/27 07:59:52;;;;;;;41.95;27.95;;;179.90;2073.60;;;;;;5056186;28;20048;-83
2021/03/27 08:02:58;;;;;;;40.97;27.90;;;180.00;2022.40;;;;;;5056070;28;20032;-84
2021/03/27 08:05:42;;;;;;;51.75;31.70;;;180.10;2022.40;;;;;;5073158;28;20139;-84
2021/03/27 08:08:51;;;;;;;43.67;29.63;;;204.80;1971.20;;;;;;5072794;28;20029;-87
2021/03/27 08:11:42;;;;;;;49.22;31.65;;;205.10;1920.00;;;;;;5022954;28;20087;-84
2021/03/27 08:14:32;;;;;;;45.20;30.88;;;205.20;1920.00;;;;;;5073141;28;20417;-84
2021/03/27 08:17:13;;;;;;;46.20;32.47;;;205.40;1894.40;;;;;;5055983;28;20029;-85
2021/03/27 08:20:11;;;;;;;24.23;16.08;;;205.40;1843.20;;;;;;5073227;28;20025;-86
2021/03/27 08:23:07;;;;;;;28.48;20.73;;;205.60;1689.60;;;;;;5056297;28;20025;-84
2021/03/27 08:25:56;;;;;;;30.17;20.00;;;205.70;1766.40;;;;;;5055546;28;20029;-85
2021/03/27 08:28:59;;;;;;;34.30;21.85;;;230.40;1766.40;;;;;;5025387;28;20397;-85
2021/03/27 08:31:36;;;;;;;27.83;20.60;;;230.60;1792.00;;;;;;5072023;28;20213;-82
2021/03/27 08:34:29;;;;;;;24.75;18.70;;;230.70;1817.60;;;;;;5072820;28;20294;-84
2021/03/27 08:37:10;;;;;;;31.48;22.75;;;230.90;1766.40;;;;;;5055724;28;20408;-85
2021/03/27 08:39:45;;;;;;;31.58;22.20;;;230.90;1817.60;;;;;;5071652;28;20025;-83
2021/03/27 08:42:51;;;;;;;35.80;24.38;;;231.00;1792.00;;;;;;5071806;28;20025;-84
2021/03/27 08:45:27;;;;;;;26.90;18.85;;;231.10;1817.60;;;;;;4994618;28;20101;-81
2021/03/27 08:47:53;;;;;;;33.60;19.30;;;231.30;1792.00;;;;;;5044559;28;20499;-83
2021/03/27 08:50:30;;;;;;;23.08;15.65;;;256.10;1766.40;;;;;;5071809;28;20025;-81
2021/03/27 08:53:33;;;;;;;24.65;16.02;;;256.30;1766.40;;;;;;5071672;28;20593;-82
2021/03/27 08:56:10;;;;;;;;;;;256.50;1766.40;;;;;;5056954;28;20033;-82
2021/03/27 08:59:15;;;;;;;29.25;18.83;;;256.50;1715.20;;;;;;5071600;28;19912;-81
2021/03/27 09:01:44;;;;;;;24.67;16.55;;;256.70;1740.80;;;;;;5054675;28;20052;-81
2021/03/27 09:04:37;;;;;;;35.78;22.40;;;281.60;1715.20;;;;;;5071474;28;20437;-80
2021/03/27 09:07:11;;;;;;;29.50;17.23;;;281.60;1715.20;;;;;;5055442;28;20041;-81
2021/03/27 09:09:49;;;;;;;25.52;15.48;;;281.70;1689.60;;;;;;5083765;28;20016;-79
2021/03/27 09:12:34;;;;;;;27.45;16.88;;;281.60;1664.00;;;;;;5074560;28;20456;-80
2021/03/27 09:15:37;;;;;;;24.13;17.05;;;281.60;1612.80;;;;;;5073257;28;20025;-79
2021/03/27 09:18:31;;;;;;;23.35;15.20;;;281.60;1664.00;;;;;;5074193;28;20028;-76
2021/03/27 09:21:15;;;;;;;22.25;14.13;;;281.80;1612.80;;;;;;5072526;28;20099;-77
2021/03/27 09:23:53;;;;;;;19.65;12.15;;;281.90;1587.20;;;;;;5075774;28;20020;-77
2021/03/27 09:26:39;;;;;;;24.73;15.02;;;282.20;1561.60;;;;;;5072762;28;20033;-76
2021/03/27 09:29:24;;;;;;;22.63;14.65;;;282.20;1561.60;;;;;;5075409;28;20040;-76
2021/03/27 09:31:56;;;;;;;20.73;12.32;;;282.30;1536.00;;;;;;5072201;28;20017;-77
2021/03/27 09:37:26;;;;;;;23.83;15.27;;;282.50;1510.40;;;;;;5036007;22;20057;-79
2021/03/27 09:40:31;;;;;;;17.75;13.32;;;307.20;1561.60;;;;;;4995504;28;20036;-76
2021/03/27 09:43:42;;;;;;;19.30;12.85;;;282.50;1510.40;;;;;;4966506;28;20034;-79
2021/03/27 09:46:44;;;;;;;26.42;15.40;;;307.20;1536.00;;;;;;5016915;28;20061;-81
2021/03/27 09:49:42;;;;;;;22.48;14.63;;;307.40;1561.60;;;;;;5014525;28;20033;-81
2021/03/27 09:52:41;;;;;;;24.00;15.93;;;307.50;1536.00;;;;;;5015747;28;20498;-80
2021/03/27 09:55:53;;;;;;;18.92;13.10;;;307.60;1536.00;;;;;;5016992;28;20492;-79
2021/03/27 09:58:19;;;;;;;22.73;13.07;;;307.90;1484.80;;;;;;5016046;28;20021;-80
2021/03/27 10:00:49;;;;;;;18.80;12.25;;;308.10;1459.20;;;;;;5016811;28;20029;-80
2021/03/27 10:03:31;;;;;;;19.42;12.23;;;332.80;1484.80;;;;;;5016533;28;20038;-82
2021/03/27 10:06:23;;;;;;;18.90;13.75;;;333.10;1484.80;;;;;;5017449;28;20078;-79
2021/03/27 10:12:34;;;;;;;22.58;14.73;;;333.60;1459.20;;;;;;5033620;28;20043;-82
2021/03/27 10:22:09;;;;;;;24.63;13.70;;;358.50;1433.60;;;;;;5034463;28;20081;-81
2021/03/27 10:24:55;;;;;;;15.77;11.38;;;358.70;1433.60;;;;;;5016584;28;20037;-79
2021/03/27 10:27:47;;;;;;;15.88;11.70;;;358.80;1382.40;;;;;;5016660;28;20040;-82
2021/03/27 10:30:31;;;;;;;22.35;14.63;;;358.80;1356.80;;;;;;5016669;28;20041;-80
2021/03/27 10:33:32;;;;;;;20.75;12.27;;;359.00;1356.80;;;;;;5034236;28;20026;-79
2021/03/27 10:36:43;;;;;;;32.13;13.90;;;359.10;1331.20;;;;;;5016414;28;20045;-80
2021/03/27 10:39:50;;;;;;;19.02;12.80;;;359.20;1356.80;;;;;;5019085;28;20358;-79
2021/03/27 10:42:35;;;;;;;20.33;13.38;;;384.00;1331.20;;;;;;5034203;28;20101;-79
2021/03/27 10:45:39;;;;;;;17.27;11.55;;;384.30;1331.20;;;;;;5016089;28;20028;-79
2021/03/27 10:48:04;;;;;;;20.65;12.25;;;384.50;1305.60;;;;;;5016314;28;20042;-83
2021/03/27 10:51:02;;;;;;;24.02;15.90;;;384.90;1305.60;;;;;;5016264;28;20029;-78
2021/03/27 10:53:52;;;;;;;17.58;11.18;;;409.90;1331.20;;;;;;5032124;28;20064;-78
2021/03/27 10:56:24;;;;;;;21.65;12.70;;;409.90;1254.40;;;;;;5015267;28;20029;-76
2021/03/27 10:59:24;;;;;;;20.03;10.57;;;410.20;1254.40;;;;;;5015951;28;20113;-79
2021/03/27 11:01:56;;;;;;;17.52;11.98;;;435.20;1254.40;;;;;;5015937;28;20033;-79
2021/03/27 11:05:01;;;;;;;21.80;15.33;;;435.30;1228.80;;;;;;5033706;28;20037;-78
2021/03/27 11:07:51;;;;;;;21.77;13.05;;;435.40;1228.80;;;;;;4987922;28;20267;-78
2021/03/27 11:10:35;;;;;;;19.45;11.52;;;435.90;1203.20;;;;;;5033894;28;20034;-77
2021/03/27 11:13:32;;;;;;;18.23;11.07;;;460.80;1203.20;;;;;;5033609;28;20456;-77
2021/03/27 11:16:22;;;;;;;17.25;11.50;;;461.10;1152.00;;;;;;5016037;28;20030;-80
2021/03/27 11:18:51;;;;;;;16.13;10.80;;;461.20;1177.60;;;;;;5016047;28;20021;-78
2021/03/27 11:21:38;;;;;;;17.90;12.85;;;461.30;1126.40;;;;;;5014512;28;20022;-78
2021/03/27 11:24:04;;;;;;;34.03;18.17;;;486.40;1126.40;;;;;;5016555;28;20345;-77
2021/03/27 11:26:56;;;;;;;30.85;21.70;;;486.70;1152.00;;;;;;5014823;28;20029;-76
2021/03/27 11:29:40;;;;;;;24.33;16.77;;;487.00;1152.00;;;;;;5015994;28;20030;-77
2021/03/27 11:32:20;;;;;;;15.15;10.07;;;487.10;1152.00;;;;;;5033680;28;20026;-77
2021/03/27 11:35:06;;;;;;;16.27;10.20;;;487.10;1049.60;;;;;;5016146;28;20079;-77
2021/03/27 11:37:47;;;;;;;20.08;11.38;;;512.30;1075.20;;;;;;5016055;28;20037;-76
2021/03/27 11:40:34;;;;;;;15.27;10.37;;;512.30;1024.00;;;;;;5015891;28;20083;-78
2021/03/27 11:43:09;;;;;;;17.27;12.38;;;512.30;1024.00;;;;;;5015517;28;20021;-77
2021/03/27 11:45:49;;;;;;;17.65;10.63;;;512.60;1024.00;;;;;;5015683;28;20069;-78
2021/03/27 11:48:23;;;;;;;19.63;10.30;;;512.50;1024.00;;;;;;5033171;28;20030;-78
2021/03/27 11:51:08;;;;;;;16.40;8.45;;;512.90;998.40;;;;;;5015716;28;20029;-78
2021/03/27 11:53:37;;;;;;;16.17;10.57;;;537.60;1024.00;;;;;;5016340;28;20022;-77
2021/03/27 11:56:26;;;;;;;16.33;9.82;;;537.80;1024.00;;;;;;5033035;28;20030;-77
2021/03/27 12:00:47;;;;;;;13.50;8.27;;;512.70;947.20;;;;;;5014656;28;20022;-76
2021/03/27 12:02:35;;;;;;;16.77;12.13;;;512.70;947.20;;;;;;5033269;28;20361;-78
2021/03/27 12:05:22;;;;;;;20.42;14.10;;;538.00;998.40;;;;;;5020693;28;20032;-77
2021/03/27 12:07:57;;;;;;;36.05;24.60;;;538.30;998.40;;;;;;5021047;28;20025;-77
2021/03/27 12:10:37;;;;;;;18.13;10.38;;;563.30;1024.00;;;;;;5023445;28;20030;-78
2021/03/27 12:13:18;;;;;;;19.90;14.02;;;563.40;972.80;;;;;;5036782;28;20372;-77
2021/03/27 12:16:05;;;;;;;17.80;10.13;;;538.50;947.20;;;;;;5056442;28;20025;-77
2021/03/27 12:18:51;;;;;;;19.75;12.50;;;563.20;947.20;;;;;;5056611;28;20025;-77
2021/03/27 12:21:54;;;;;;;15.75;9.70;;;563.40;972.80;;;;;;5047518;28;20017;-77
2021/03/27 12:24:29;;;;;;;13.55;9.02;;;563.20;921.60;;;;;;4986323;28;20045;-77
2021/03/27 12:27:03;;;;;;;15.30;9.80;;;538.50;870.40;;;;;;5035071;28;20530;-76
2021/03/27 12:29:40;;;;;;;15.30;9.02;;;563.40;896.00;;;;;;5018903;28;20053;-76
2021/03/27 12:32:20;;;;;;;34.85;22.20;;;563.30;896.00;;;;;;5018348;28;20020;-76
2021/03/27 12:35:19;;;;;;;16.67;10.35;;;563.70;896.00;;;;;;5033509;28;20029;-77
2021/03/27 12:38:06;;;;;;;16.60;9.45;;;563.70;896.00;;;;;;4970963;28;20117;-77
2021/03/27 12:41:02;;;;;;;25.08;17.88;;;564.10;870.40;;;;;;4976423;28;20374;-76
2021/03/27 12:43:31;;;;;;;18.35;13.90;;;564.10;870.40;;;;;;4968192;28;20031;-76
2021/03/27 12:46:26;;;;;;;19.80;14.82;;;588.90;844.80;;;;;;4977037;28;20031;-75
2021/03/27 12:49:05;;;;;;;17.95;13.35;;;588.90;870.40;;;;;;4924701;28;20036;-78
2021/03/27 12:51:47;;;;;;;20.17;12.88;;;589.00;844.80;;;;;;4975735;28;20023;-78
2021/03/27 12:54:31;;;;;;;14.65;10.40;;;589.20;896.00;;;;;;4992580;28;20023;-79
2021/03/27 12:57:33;;;;;;;15.85;11.35;;;589.30;844.80;;;;;;4992248;28;20034;-79
2021/03/27 13:00:24;;;;;;;21.35;14.02;;;589.10;844.80;;;;;;4991810;28;20537;-79
2021/03/27 13:03:11;;;;;;;22.25;14.57;;;589.40;870.40;;;;;;4976088;28;20041;-78
2021/03/27 13:06:08;;;;;;;13.02;8.07;;;589.50;870.40;;;;;;4975865;28;20038;-78
2021/03/27 13:09:12;;;;;;;13.82;9.55;;;589.60;819.20;;;;;;4974870;28;20031;-81
2021/03/27 13:11:59;;;;;;;17.58;10.15;;;589.60;793.60;;;;;;4991720;28;20459;-76
2021/03/27 13:14:58;;;;;;;17.40;10.75;;;589.60;819.20;;;;;;4976456;28;20446;-76
2021/03/27 13:17:36;;;;;;;27.13;21.25;;;614.40;844.80;;;;;;4976890;28;20199;-76
2021/03/27 13:20:25;;;;;;;23.27;15.65;;;614.50;819.20;;;;;;4991513;28;20050;-76
2021/03/27 13:23:07;;;;;;;22.70;12.52;;;589.70;844.80;;;;;;5005762;28;20027;-77
2021/03/27 13:25:39;;;;;;;17.20;11.65;;;589.50;819.20;;;;;;5010886;28;20402;-77
2021/03/27 13:28:37;;;;;;;14.50;8.80;;;589.40;819.20;;;;;;4994056;28;20030;-77
2021/03/27 13:31:09;;;;;;;12.68;8.43;;;588.90;870.40;;;;;;4991365;28;20034;-77
2021/03/27 13:34:03;;;;;;;21.90;15.40;;;564.10;819.20;;;;;;5010675;28;20465;-77
2021/03/27 13:36:39;;;;;;;16.98;11.25;;;588.90;819.20;;;;;;5007516;28;20054;-77
2021/03/27 13:39:23;;;;;;;19.85;13.15;;;564.10;819.20;;;;;;5014197;28;20072;-77
2021/03/27 13:42:01;;;;;;;20.33;13.75;;;588.80;819.20;;;;;;5013753;28;20413;-77
2021/03/27 13:44:33;;;;;;;18.20;11.63;;;564.10;819.20;;;;;;5015718;28;20037;-77